sensor_id;sensor_type;location;lat;lon;timestamp;temperature;humidity
6865;DHT22;3471;49.678;8.388;2023-06-14T00:01:02;20.30;85.60
6865;DHT22;3471;49.678;8.388;2023-06-14T00:03:31;20.30;86.60
6865;DHT22;3471;49.678;8.388;2023-06-14T00:05:58;20.30;88.50
6865;DHT22;3471;49.678;8.388;2023-06-14T00:08:23;20.20;89.10
6865;DHT22;3471;49.678;8.388;2023-06-14T00:10:51;20.30;87.50
6865;DHT22;3471;49.678;8.388;2023-06-14T00:13:16;20.20;88.80
6865;DHT22;3471;49.678;8.388;2023-06-14T00:15:42;20.20;89.50
6865;DHT22;3471;49.678;8.388;2023-06-14T00:18:08;20.20;86.90
6865;DHT22;3471;49.678;8.388;2023-06-14T00:20:35;20.10;87.00
6865;DHT22;3471;49.678;8.388;2023-06-14T00:23:00;20.10;86.30
6865;DHT22;3471;49.678;8.388;2023-06-14T00:25:26;20.00;88.40
6865;DHT22;3471;49.678;8.388;2023-06-14T00:27:53;20.00;86.60
6865;DHT22;3471;49.678;8.388;2023-06-14T00:30:19;20.00;87.40
6865;DHT22;3471;49.678;8.388;2023-06-14T00:32:45;19.90;86.80
6865;DHT22;3471;49.678;8.388;2023-06-14T00:35:11;19.90;86.90
6865;DHT22;3471;49.678;8.388;2023-06-14T00:37:37;19.80;88.60
6865;DHT22;3471;49.678;8.388;2023-06-14T00:40:04;19.80;87.90
6865;DHT22;3471;49.678;8.388;2023-06-14T00:42:30;19.80;87.40
6865;DHT22;3471;49.678;8.388;2023-06-14T00:44:56;19.80;87.20
6865;DHT22;3471;49.678;8.388;2023-06-14T00:47:22;19.70;88.90
6865;DHT22;3471;49.678;8.388;2023-06-14T00:49:49;19.70;89.50
6865;DHT22;3471;49.678;8.388;2023-06-14T00:52:16;19.70;89.00
6865;DHT22;3471;49.678;8.388;2023-06-14T00:54:43;19.70;86.20
6865;DHT22;3471;49.678;8.388;2023-06-14T00:57:09;19.60;90.60
6865;DHT22;3471;49.678;8.388;2023-06-14T00:59:47;19.60;90.00
6865;DHT22;3471;49.678;8.388;2023-06-14T01:02:14;19.60;89.60
6865;DHT22;3471;49.678;8.388;2023-06-14T01:04:41;19.60;90.00
6865;DHT22;3471;49.678;8.388;2023-06-14T01:07:23;19.60;90.20
6865;DHT22;3471;49.678;8.388;2023-06-14T01:15:23;19.50;88.50
6865;DHT22;3471;49.678;8.388;2023-06-14T01:17:50;19.40;90.30
6865;DHT22;3471;49.678;8.388;2023-06-14T01:20:19;19.40;89.80
6865;DHT22;3471;49.678;8.388;2023-06-14T01:22:52;19.40;89.90
6865;DHT22;3471;49.678;8.388;2023-06-14T01:25:21;19.30;90.20
6865;DHT22;3471;49.678;8.388;2023-06-14T01:27:53;19.30;90.30
6865;DHT22;3471;49.678;8.388;2023-06-14T01:30:21;19.30;90.40
6865;DHT22;3471;49.678;8.388;2023-06-14T01:32:49;19.20;91.80
6865;DHT22;3471;49.678;8.388;2023-06-14T01:35:16;19.20;90.80
6865;DHT22;3471;49.678;8.388;2023-06-14T01:37:42;19.20;90.00
6865;DHT22;3471;49.678;8.388;2023-06-14T01:40:09;19.20;92.20
6865;DHT22;3471;49.678;8.388;2023-06-14T01:42:37;19.10;92.20
6865;DHT22;3471;49.678;8.388;2023-06-14T01:45:05;19.10;90.90
6865;DHT22;3471;49.678;8.388;2023-06-14T01:47:31;19.10;90.50
6865;DHT22;3471;49.678;8.388;2023-06-14T01:49:58;19.10;91.70
6865;DHT22;3471;49.678;8.388;2023-06-14T01:52:24;19.00;91.10
6865;DHT22;3471;49.678;8.388;2023-06-14T01:54:50;19.00;90.60
6865;DHT22;3471;49.678;8.388;2023-06-14T01:57:16;19.00;90.60
6865;DHT22;3471;49.678;8.388;2023-06-14T01:59:42;18.90;90.70
6865;DHT22;3471;49.678;8.388;2023-06-14T02:02:08;18.90;90.90
6865;DHT22;3471;49.678;8.388;2023-06-14T02:04:33;18.80;91.00
6865;DHT22;3471;49.678;8.388;2023-06-14T02:06:59;18.80;91.30
6865;DHT22;3471;49.678;8.388;2023-06-14T02:09:24;18.80;91.20
6865;DHT22;3471;49.678;8.388;2023-06-14T02:11:50;18.70;91.30
6865;DHT22;3471;49.678;8.388;2023-06-14T02:14:16;18.70;91.00
6865;DHT22;3471;49.678;8.388;2023-06-14T02:16:42;18.60;91.40
6865;DHT22;3471;49.678;8.388;2023-06-14T02:19:15;18.60;91.50
6865;DHT22;3471;49.678;8.388;2023-06-14T02:21:41;18.60;92.70
6865;DHT22;3471;49.678;8.388;2023-06-14T02:24:07;18.50;92.00
6865;DHT22;3471;49.678;8.388;2023-06-14T02:26:32;18.50;91.30
6865;DHT22;3471;49.678;8.388;2023-06-14T02:28:58;18.50;92.30
6865;DHT22;3471;49.678;8.388;2023-06-14T02:31:23;18.50;91.50
6865;DHT22;3471;49.678;8.388;2023-06-14T02:33:49;18.50;91.10
6865;DHT22;3471;49.678;8.388;2023-06-14T02:36:15;18.50;92.10
6865;DHT22;3471;49.678;8.388;2023-06-14T02:38:41;18.40;92.60
6865;DHT22;3471;49.678;8.388;2023-06-14T02:41:06;18.40;92.30
6865;DHT22;3471;49.678;8.388;2023-06-14T02:43:32;18.40;91.90
6865;DHT22;3471;49.678;8.388;2023-06-14T02:45:57;18.30;92.50
6865;DHT22;3471;49.678;8.388;2023-06-14T02:48:23;18.20;92.00
6865;DHT22;3471;49.678;8.388;2023-06-14T02:50:49;18.20;91.90
6865;DHT22;3471;49.678;8.388;2023-06-14T02:53:15;18.10;92.80
6865;DHT22;3471;49.678;8.388;2023-06-14T02:55:41;18.10;93.00
6865;DHT22;3471;49.678;8.388;2023-06-14T02:58:07;18.00;92.10
6865;DHT22;3471;49.678;8.388;2023-06-14T03:00:32;18.00;92.70
6865;DHT22;3471;49.678;8.388;2023-06-14T03:02:58;17.90;93.60
6865;DHT22;3471;49.678;8.388;2023-06-14T03:05:27;17.90;93.10
6865;DHT22;3471;49.678;8.388;2023-06-14T03:07:53;17.90;93.40
6865;DHT22;3471;49.678;8.388;2023-06-14T03:10:19;17.80;93.20
6865;DHT22;3471;49.678;8.388;2023-06-14T03:12:46;17.80;93.70
6865;DHT22;3471;49.678;8.388;2023-06-14T03:15:12;17.80;94.40
6865;DHT22;3471;49.678;8.388;2023-06-14T03:17:38;17.80;94.80
6865;DHT22;3471;49.678;8.388;2023-06-14T03:20:05;17.80;94.00
6865;DHT22;3471;49.678;8.388;2023-06-14T03:22:32;17.80;93.10
6865;DHT22;3471;49.678;8.388;2023-06-14T03:25:00;17.80;93.30
6865;DHT22;3471;49.678;8.388;2023-06-14T03:27:26;17.80;92.80
6865;DHT22;3471;49.678;8.388;2023-06-14T03:29:54;17.80;94.50
6865;DHT22;3471;49.678;8.388;2023-06-14T03:32:19;17.80;93.70
6865;DHT22;3471;49.678;8.388;2023-06-14T03:34:45;17.80;92.30
6865;DHT22;3471;49.678;8.388;2023-06-14T03:37:10;17.80;93.30
6865;DHT22;3471;49.678;8.388;2023-06-14T03:39:36;17.80;92.60
6865;DHT22;3471;49.678;8.388;2023-06-14T03:42:02;17.80;92.20
6865;DHT22;3471;49.678;8.388;2023-06-14T03:44:27;17.80;92.20
6865;DHT22;3471;49.678;8.388;2023-06-14T03:46:53;17.80;94.80
6865;DHT22;3471;49.678;8.388;2023-06-14T03:49:19;17.80;94.20
6865;DHT22;3471;49.678;8.388;2023-06-14T03:51:44;17.80;93.60
6865;DHT22;3471;49.678;8.388;2023-06-14T03:54:11;17.80;93.60
6865;DHT22;3471;49.678;8.388;2023-06-14T03:56:36;17.80;93.50
6865;DHT22;3471;49.678;8.388;2023-06-14T03:59:02;17.80;93.30
6865;DHT22;3471;49.678;8.388;2023-06-14T04:01:28;17.80;93.50
6865;DHT22;3471;49.678;8.388;2023-06-14T04:03:57;17.80;94.80
6865;DHT22;3471;49.678;8.388;2023-06-14T04:06:23;17.90;95.30
6865;DHT22;3471;49.678;8.388;2023-06-14T04:08:51;17.90;94.90
6865;DHT22;3471;49.678;8.388;2023-06-14T04:11:17;17.90;95.10
6865;DHT22;3471;49.678;8.388;2023-06-14T04:13:43;18.00;95.50
6865;DHT22;3471;49.678;8.388;2023-06-14T04:16:09;18.00;96.00
6865;DHT22;3471;49.678;8.388;2023-06-14T04:18:34;18.00;95.60
6865;DHT22;3471;49.678;8.388;2023-06-14T04:21:00;18.10;94.80
6865;DHT22;3471;49.678;8.388;2023-06-14T04:23:26;18.10;95.40
6865;DHT22;3471;49.678;8.388;2023-06-14T04:25:53;18.10;95.60
6865;DHT22;3471;49.678;8.388;2023-06-14T04:28:19;18.20;94.90
6865;DHT22;3471;49.678;8.388;2023-06-14T04:30:45;18.20;94.50
6865;DHT22;3471;49.678;8.388;2023-06-14T04:33:12;18.20;95.80
6865;DHT22;3471;49.678;8.388;2023-06-14T04:35:39;18.30;95.40
6865;DHT22;3471;49.678;8.388;2023-06-14T04:38:06;18.30;94.70
6865;DHT22;3471;49.678;8.388;2023-06-14T04:40:34;18.30;96.50
6865;DHT22;3471;49.678;8.388;2023-06-14T04:43:01;18.40;95.50
6865;DHT22;3471;49.678;8.388;2023-06-14T04:45:30;18.50;95.80
6865;DHT22;3471;49.678;8.388;2023-06-14T04:47:58;18.60;94.40
6865;DHT22;3471;49.678;8.388;2023-06-14T04:50:24;18.60;95.20
6865;DHT22;3471;49.678;8.388;2023-06-14T04:52:50;18.60;94.90
6865;DHT22;3471;49.678;8.388;2023-06-14T04:55:17;18.70;93.80
6865;DHT22;3471;49.678;8.388;2023-06-14T04:57:44;18.70;94.40
6865;DHT22;3471;49.678;8.388;2023-06-14T05:00:10;18.80;94.80
6865;DHT22;3471;49.678;8.388;2023-06-14T05:02:37;18.80;95.50
6865;DHT22;3471;49.678;8.388;2023-06-14T05:05:04;18.90;94.60
6865;DHT22;3471;49.678;8.388;2023-06-14T05:07:32;18.90;94.10
6865;DHT22;3471;49.678;8.388;2023-06-14T05:09:59;19.00;93.90
6865;DHT22;3471;49.678;8.388;2023-06-14T05:12:25;19.00;94.20
6865;DHT22;3471;49.678;8.388;2023-06-14T05:14:50;19.10;93.50
6865;DHT22;3471;49.678;8.388;2023-06-14T05:17:16;19.10;93.40
6865;DHT22;3471;49.678;8.388;2023-06-14T05:19:42;19.10;94.00
6865;DHT22;3471;49.678;8.388;2023-06-14T05:22:08;19.20;95.10
6865;DHT22;3471;49.678;8.388;2023-06-14T05:24:34;19.30;94.20
6865;DHT22;3471;49.678;8.388;2023-06-14T05:27:00;19.40;94.40
6865;DHT22;3471;49.678;8.388;2023-06-14T05:29:26;19.50;93.80
6865;DHT22;3471;49.678;8.388;2023-06-14T05:31:52;19.50;94.00
6865;DHT22;3471;49.678;8.388;2023-06-14T05:34:18;19.60;94.30
6865;DHT22;3471;49.678;8.388;2023-06-14T05:36:44;19.70;93.30
6865;DHT22;3471;49.678;8.388;2023-06-14T05:39:09;19.70;93.70
6865;DHT22;3471;49.678;8.388;2023-06-14T05:41:35;19.70;93.80
6865;DHT22;3471;49.678;8.388;2023-06-14T05:44:01;19.80;93.30
6865;DHT22;3471;49.678;8.388;2023-06-14T05:46:27;19.90;93.50
6865;DHT22;3471;49.678;8.388;2023-06-14T05:48:54;19.90;94.20
6865;DHT22;3471;49.678;8.388;2023-06-14T05:51:20;20.00;94.10
6865;DHT22;3471;49.678;8.388;2023-06-14T05:53:47;20.10;93.30
6865;DHT22;3471;49.678;8.388;2023-06-14T05:56:13;20.20;93.60
6865;DHT22;3471;49.678;8.388;2023-06-14T05:58:39;20.20;92.90
6865;DHT22;3471;49.678;8.388;2023-06-14T06:01:05;20.30;93.10
6865;DHT22;3471;49.678;8.388;2023-06-14T06:03:31;20.40;92.60
6865;DHT22;3471;49.678;8.388;2023-06-14T06:05:56;20.40;92.60
6865;DHT22;3471;49.678;8.388;2023-06-14T06:08:22;20.50;93.30
6865;DHT22;3471;49.678;8.388;2023-06-14T06:10:48;20.50;92.50
6865;DHT22;3471;49.678;8.388;2023-06-14T06:13:13;20.60;93.90
6865;DHT22;3471;49.678;8.388;2023-06-14T06:15:39;20.70;93.30
6865;DHT22;3471;49.678;8.388;2023-06-14T06:18:04;20.80;92.80
6865;DHT22;3471;49.678;8.388;2023-06-14T06:20:30;20.90;92.70
6865;DHT22;3471;49.678;8.388;2023-06-14T06:23:00;21.00;92.00
6865;DHT22;3471;49.678;8.388;2023-06-14T06:25:26;21.10;91.80
6865;DHT22;3471;49.678;8.388;2023-06-14T06:27:55;21.20;92.30
6865;DHT22;3471;49.678;8.388;2023-06-14T06:30:24;21.20;92.10
6865;DHT22;3471;49.678;8.388;2023-06-14T06:32:50;21.30;91.70
6865;DHT22;3471;49.678;8.388;2023-06-14T06:35:16;21.40;91.70
6865;DHT22;3471;49.678;8.388;2023-06-14T06:37:42;21.50;91.70
6865;DHT22;3471;49.678;8.388;2023-06-14T06:40:08;21.50;91.20
6865;DHT22;3471;49.678;8.388;2023-06-14T06:42:35;21.60;91.40
6865;DHT22;3471;49.678;8.388;2023-06-14T06:45:00;21.70;92.10
6865;DHT22;3471;49.678;8.388;2023-06-14T06:47:26;21.70;90.90
6865;DHT22;3471;49.678;8.388;2023-06-14T06:49:52;21.80;90.90
6865;DHT22;3471;49.678;8.388;2023-06-14T06:52:18;21.90;91.40
6865;DHT22;3471;49.678;8.388;2023-06-14T06:54:43;22.00;91.60
6865;DHT22;3471;49.678;8.388;2023-06-14T06:57:09;22.10;90.90
6865;DHT22;3471;49.678;8.388;2023-06-14T06:59:36;22.20;91.00
6865;DHT22;3471;49.678;8.388;2023-06-14T07:02:02;22.20;90.80
6865;DHT22;3471;49.678;8.388;2023-06-14T07:04:27;22.30;91.10
6865;DHT22;3471;49.678;8.388;2023-06-14T07:06:55;22.40;91.30
6865;DHT22;3471;49.678;8.388;2023-06-14T07:09:20;22.40;90.20
6865;DHT22;3471;49.678;8.388;2023-06-14T07:11:47;22.50;91.20
6865;DHT22;3471;49.678;8.388;2023-06-14T07:14:13;22.60;90.70
6865;DHT22;3471;49.678;8.388;2023-06-14T07:16:38;22.80;90.50
6865;DHT22;3471;49.678;8.388;2023-06-14T07:19:04;22.90;90.20
6865;DHT22;3471;49.678;8.388;2023-06-14T07:21:30;23.00;89.90
6865;DHT22;3471;49.678;8.388;2023-06-14T07:23:56;23.00;89.90
6865;DHT22;3471;49.678;8.388;2023-06-14T07:26:22;23.10;90.20
6865;DHT22;3471;49.678;8.388;2023-06-14T07:28:48;23.10;90.30
6865;DHT22;3471;49.678;8.388;2023-06-14T07:31:15;23.10;89.10
6865;DHT22;3471;49.678;8.388;2023-06-14T07:33:41;23.20;89.20
6865;DHT22;3471;49.678;8.388;2023-06-14T07:36:07;23.30;90.10
6865;DHT22;3471;49.678;8.388;2023-06-14T07:38:33;23.40;89.40
6865;DHT22;3471;49.678;8.388;2023-06-14T07:40:59;23.50;88.90
6865;DHT22;3471;49.678;8.388;2023-06-14T07:43:24;23.60;88.70
6865;DHT22;3471;49.678;8.388;2023-06-14T07:45:50;23.60;88.30
6865;DHT22;3471;49.678;8.388;2023-06-14T07:48:15;23.60;88.20
6865;DHT22;3471;49.678;8.388;2023-06-14T07:50:41;23.70;89.00
6865;DHT22;3471;49.678;8.388;2023-06-14T07:53:06;23.70;90.20
6865;DHT22;3471;49.678;8.388;2023-06-14T07:55:32;23.80;89.30
6865;DHT22;3471;49.678;8.388;2023-06-14T07:57:59;23.80;89.50
6865;DHT22;3471;49.678;8.388;2023-06-14T08:00:24;23.80;89.70
6865;DHT22;3471;49.678;8.388;2023-06-14T08:02:50;24.00;89.90
6865;DHT22;3471;49.678;8.388;2023-06-14T08:05:17;24.00;88.00
6865;DHT22;3471;49.678;8.388;2023-06-14T08:07:43;24.20;90.10
6865;DHT22;3471;49.678;8.388;2023-06-14T08:10:08;24.30;88.70
6865;DHT22;3471;49.678;8.388;2023-06-14T08:12:34;24.40;88.90
6865;DHT22;3471;49.678;8.388;2023-06-14T08:15:00;24.50;89.20
6865;DHT22;3471;49.678;8.388;2023-06-14T08:17:26;24.50;89.00
6865;DHT22;3471;49.678;8.388;2023-06-14T08:19:52;24.60;89.50
6865;DHT22;3471;49.678;8.388;2023-06-14T08:22:20;24.70;89.30
6865;DHT22;3471;49.678;8.388;2023-06-14T08:24:47;24.80;89.20
6865;DHT22;3471;49.678;8.388;2023-06-14T08:27:13;24.80;89.20
6865;DHT22;3471;49.678;8.388;2023-06-14T08:29:38;24.90;89.00
6865;DHT22;3471;49.678;8.388;2023-06-14T08:32:06;25.10;88.30
6865;DHT22;3471;49.678;8.388;2023-06-14T08:34:32;25.20;84.50
6865;DHT22;3471;49.678;8.388;2023-06-14T08:36:57;25.20;86.00
6865;DHT22;3471;49.678;8.388;2023-06-14T08:39:23;25.20;85.60
6865;DHT22;3471;49.678;8.388;2023-06-14T08:41:49;25.30;86.40
6865;DHT22;3471;49.678;8.388;2023-06-14T08:44:19;25.40;87.60
6865;DHT22;3471;49.678;8.388;2023-06-14T08:46:45;25.50;84.10
6865;DHT22;3471;49.678;8.388;2023-06-14T08:49:13;25.50;83.60
6865;DHT22;3471;49.678;8.388;2023-06-14T08:51:39;25.60;84.50
6865;DHT22;3471;49.678;8.388;2023-06-14T08:54:06;25.70;83.40
6865;DHT22;3471;49.678;8.388;2023-06-14T08:56:32;25.80;81.80
6865;DHT22;3471;49.678;8.388;2023-06-14T08:59:00;25.70;80.30
6865;DHT22;3471;49.678;8.388;2023-06-14T09:01:28;25.70;82.80
6865;DHT22;3471;49.678;8.388;2023-06-14T09:03:54;25.80;84.90
6865;DHT22;3471;49.678;8.388;2023-06-14T09:06:21;25.80;80.40
6865;DHT22;3471;49.678;8.388;2023-06-14T09:08:48;25.80;78.10
6865;DHT22;3471;49.678;8.388;2023-06-14T09:11:15;25.80;82.00
6865;DHT22;3471;49.678;8.388;2023-06-14T09:13:42;25.90;81.60
6865;DHT22;3471;49.678;8.388;2023-06-14T09:16:08;26.00;83.00
6865;DHT22;3471;49.678;8.388;2023-06-14T09:18:42;26.10;84.50
6865;DHT22;3471;49.678;8.388;2023-06-14T09:21:10;26.20;82.30
6865;DHT22;3471;49.678;8.388;2023-06-14T09:23:46;26.30;83.20
6865;DHT22;3471;49.678;8.388;2023-06-14T09:26:14;26.40;83.10
6865;DHT22;3471;49.678;8.388;2023-06-14T09:28:44;26.60;82.50
6865;DHT22;3471;49.678;8.388;2023-06-14T09:31:12;26.70;79.30
6865;DHT22;3471;49.678;8.388;2023-06-14T09:33:38;26.80;77.60
6865;DHT22;3471;49.678;8.388;2023-06-14T09:36:04;26.80;79.10
6865;DHT22;3471;49.678;8.388;2023-06-14T09:38:34;26.80;80.20
6865;DHT22;3471;49.678;8.388;2023-06-14T09:41:03;26.80;76.70
6865;DHT22;3471;49.678;8.388;2023-06-14T09:43:29;26.90;80.10
6865;DHT22;3471;49.678;8.388;2023-06-14T09:45:55;27.00;80.40
6865;DHT22;3471;49.678;8.388;2023-06-14T09:48:21;27.20;79.40
6865;DHT22;3471;49.678;8.388;2023-06-14T09:50:46;27.30;81.00
6865;DHT22;3471;49.678;8.388;2023-06-14T09:53:14;27.40;81.00
6865;DHT22;3471;49.678;8.388;2023-06-14T09:55:41;27.40;76.70
6865;DHT22;3471;49.678;8.388;2023-06-14T09:58:09;27.50;78.70
6865;DHT22;3471;49.678;8.388;2023-06-14T10:00:36;27.60;79.90
6865;DHT22;3471;49.678;8.388;2023-06-14T10:03:13;27.70;80.70
6865;DHT22;3471;49.678;8.388;2023-06-14T10:05:43;27.90;78.00
6865;DHT22;3471;49.678;8.388;2023-06-14T10:08:11;28.00;79.30
6865;DHT22;3471;49.678;8.388;2023-06-14T10:10:39;28.10;79.20
6865;DHT22;3471;49.678;8.388;2023-06-14T10:13:06;28.10;78.10
6865;DHT22;3471;49.678;8.388;2023-06-14T10:15:48;28.20;79.50
6865;DHT22;3471;49.678;8.388;2023-06-14T10:23:41;28.50;76.90
6865;DHT22;3471;49.678;8.388;2023-06-14T10:26:08;28.70;78.00
6865;DHT22;3471;49.678;8.388;2023-06-14T10:28:37;28.80;77.80
6865;DHT22;3471;49.678;8.388;2023-06-14T10:31:11;28.90;77.40
6865;DHT22;3471;49.678;8.388;2023-06-14T10:33:48;28.90;75.80
6865;DHT22;3471;49.678;8.388;2023-06-14T10:41:35;29.10;74.20
6865;DHT22;3471;49.678;8.388;2023-06-14T10:46:59;29.40;77.90
6865;DHT22;3471;49.678;8.388;2023-06-14T10:49:40;29.50;69.40
6865;DHT22;3471;49.678;8.388;2023-06-14T10:52:08;29.50;73.40
6865;DHT22;3471;49.678;8.388;2023-06-14T10:54:37;29.20;72.50
6865;DHT22;3471;49.678;8.388;2023-06-14T10:57:06;29.00;75.80
6865;DHT22;3471;49.678;8.388;2023-06-14T10:59:33;28.90;74.20
6865;DHT22;3471;49.678;8.388;2023-06-14T11:02:21;29.00;74.10
6865;DHT22;3471;49.678;8.388;2023-06-14T11:04:53;29.10;75.60
6865;DHT22;3471;49.678;8.388;2023-06-14T11:12:38;29.60;76.00
6865;DHT22;3471;49.678;8.388;2023-06-14T11:15:05;29.80;75.30
6865;DHT22;3471;49.678;8.388;2023-06-14T11:17:33;30.00;75.10
6865;DHT22;3471;49.678;8.388;2023-06-14T11:20:12;30.00;73.40
6865;DHT22;3471;49.678;8.388;2023-06-14T11:22:45;30.00;74.80
6865;DHT22;3471;49.678;8.388;2023-06-14T11:25:14;30.30;67.30
6865;DHT22;3471;49.678;8.388;2023-06-14T11:27:41;30.40;73.10
6865;DHT22;3471;49.678;8.388;2023-06-14T11:30:08;30.50;73.70
6865;DHT22;3471;49.678;8.388;2023-06-14T11:32:38;30.60;70.00
6865;DHT22;3471;49.678;8.388;2023-06-14T11:35:04;30.60;71.20
6865;DHT22;3471;49.678;8.388;2023-06-14T11:37:31;30.60;72.80
6865;DHT22;3471;49.678;8.388;2023-06-14T11:40:01;30.80;73.30
6865;DHT22;3471;49.678;8.388;2023-06-14T11:42:27;31.00;72.50
6865;DHT22;3471;49.678;8.388;2023-06-14T11:44:54;31.10;70.20
6865;DHT22;3471;49.678;8.388;2023-06-14T11:47:20;31.20;72.30
6865;DHT22;3471;49.678;8.388;2023-06-14T11:49:46;31.40;71.80
6865;DHT22;3471;49.678;8.388;2023-06-14T11:52:13;31.40;68.80
6865;DHT22;3471;49.678;8.388;2023-06-14T11:54:39;31.40;68.60
6865;DHT22;3471;49.678;8.388;2023-06-14T11:57:07;31.30;70.90
6865;DHT22;3471;49.678;8.388;2023-06-14T11:59:38;31.30;69.40
6865;DHT22;3471;49.678;8.388;2023-06-14T12:02:04;31.50;73.40
6865;DHT22;3471;49.678;8.388;2023-06-14T12:04:30;31.60;70.10
6865;DHT22;3471;49.678;8.388;2023-06-14T12:06:56;31.70;69.30
6865;DHT22;3471;49.678;8.388;2023-06-14T12:09:23;31.50;67.40
6865;DHT22;3471;49.678;8.388;2023-06-14T12:11:51;31.10;70.30
6865;DHT22;3471;49.678;8.388;2023-06-14T12:14:29;30.70;71.40
6865;DHT22;3471;49.678;8.388;2023-06-14T12:17:06;30.60;73.40
6865;DHT22;3471;49.678;8.388;2023-06-14T12:19:32;30.80;71.20
6865;DHT22;3471;49.678;8.388;2023-06-14T12:21:59;30.90;70.80
6865;DHT22;3471;49.678;8.388;2023-06-14T12:24:29;30.90;67.90
6865;DHT22;3471;49.678;8.388;2023-06-14T12:26:57;30.80;70.80
6865;DHT22;3471;49.678;8.388;2023-06-14T12:29:25;30.60;66.90
6865;DHT22;3471;49.678;8.388;2023-06-14T12:31:50;30.30;71.20
6865;DHT22;3471;49.678;8.388;2023-06-14T12:34:16;30.30;71.60
6865;DHT22;3471;49.678;8.388;2023-06-14T12:36:42;30.30;67.10
6865;DHT22;3471;49.678;8.388;2023-06-14T12:39:10;30.30;67.90
6865;DHT22;3471;49.678;8.388;2023-06-14T12:41:35;30.20;69.30
6865;DHT22;3471;49.678;8.388;2023-06-14T12:44:02;30.20;68.70
6865;DHT22;3471;49.678;8.388;2023-06-14T12:46:30;30.20;74.60
6865;DHT22;3471;49.678;8.388;2023-06-14T12:48:56;30.30;67.50
6865;DHT22;3471;49.678;8.388;2023-06-14T12:51:22;30.30;68.30
6865;DHT22;3471;49.678;8.388;2023-06-14T12:53:49;30.30;68.00
6865;DHT22;3471;49.678;8.388;2023-06-14T12:56:15;30.20;68.90
6865;DHT22;3471;49.678;8.388;2023-06-14T12:58:41;30.30;67.70
6865;DHT22;3471;49.678;8.388;2023-06-14T13:01:07;30.50;71.30
6865;DHT22;3471;49.678;8.388;2023-06-14T13:03:33;30.80;71.60
6865;DHT22;3471;49.678;8.388;2023-06-14T13:06:00;31.20;68.40
6865;DHT22;3471;49.678;8.388;2023-06-14T13:08:26;31.70;68.80
6865;DHT22;3471;49.678;8.388;2023-06-14T13:10:51;31.90;64.70
6865;DHT22;3471;49.678;8.388;2023-06-14T13:13:17;31.80;65.40
6865;DHT22;3471;49.678;8.388;2023-06-14T13:15:43;31.50;64.50
6865;DHT22;3471;49.678;8.388;2023-06-14T13:18:11;31.20;64.10
6865;DHT22;3471;49.678;8.388;2023-06-14T13:20:38;30.80;65.00
6865;DHT22;3471;49.678;8.388;2023-06-14T13:23:04;30.60;67.80
6865;DHT22;3471;49.678;8.388;2023-06-14T13:25:33;30.60;65.00
6865;DHT22;3471;49.678;8.388;2023-06-14T13:27:58;30.80;66.50
6865;DHT22;3471;49.678;8.388;2023-06-14T13:30:24;31.10;69.10
6865;DHT22;3471;49.678;8.388;2023-06-14T13:32:50;31.50;69.10
6865;DHT22;3471;49.678;8.388;2023-06-14T13:35:18;31.80;68.30
6865;DHT22;3471;49.678;8.388;2023-06-14T13:37:43;32.20;67.10
6865;DHT22;3471;49.678;8.388;2023-06-14T13:40:09;32.50;67.20
6865;DHT22;3471;49.678;8.388;2023-06-14T13:42:35;32.90;66.20
6865;DHT22;3471;49.678;8.388;2023-06-14T13:45:02;33.20;63.30
6865;DHT22;3471;49.678;8.388;2023-06-14T13:47:28;33.30;65.90
6865;DHT22;3471;49.678;8.388;2023-06-14T13:49:54;33.50;63.00
6865;DHT22;3471;49.678;8.388;2023-06-14T13:52:20;33.70;65.60
6865;DHT22;3471;49.678;8.388;2023-06-14T13:54:46;33.70;63.40
6865;DHT22;3471;49.678;8.388;2023-06-14T13:57:11;33.70;65.70
6865;DHT22;3471;49.678;8.388;2023-06-14T13:59:39;33.80;66.20
6865;DHT22;3471;49.678;8.388;2023-06-14T14:02:06;34.00;65.10
6865;DHT22;3471;49.678;8.388;2023-06-14T14:04:33;34.30;64.90
6865;DHT22;3471;49.678;8.388;2023-06-14T14:06:59;34.50;64.50
6865;DHT22;3471;49.678;8.388;2023-06-14T14:09:25;34.70;63.60
6865;DHT22;3471;49.678;8.388;2023-06-14T14:11:51;34.90;60.90
6865;DHT22;3471;49.678;8.388;2023-06-14T14:14:16;35.20;63.90
6865;DHT22;3471;49.678;8.388;2023-06-14T14:16:42;35.30;64.10
6865;DHT22;3471;49.678;8.388;2023-06-14T14:19:07;35.50;62.10
6865;DHT22;3471;49.678;8.388;2023-06-14T14:21:33;35.80;63.00
6865;DHT22;3471;49.678;8.388;2023-06-14T14:23:59;35.90;61.90
6865;DHT22;3471;49.678;8.388;2023-06-14T14:26:24;36.10;60.00
6865;DHT22;3471;49.678;8.388;2023-06-14T14:28:51;36.10;54.50
6865;DHT22;3471;49.678;8.388;2023-06-14T14:31:17;35.50;56.90
6865;DHT22;3471;49.678;8.388;2023-06-14T14:33:43;35.20;59.30
6865;DHT22;3471;49.678;8.388;2023-06-14T14:36:09;35.10;60.70
6865;DHT22;3471;49.678;8.388;2023-06-14T14:38:34;35.20;57.60
6865;DHT22;3471;49.678;8.388;2023-06-14T14:41:00;35.10;60.50
6865;DHT22;3471;49.678;8.388;2023-06-14T14:43:26;35.20;58.40
6865;DHT22;3471;49.678;8.388;2023-06-14T14:45:52;35.30;58.80
6865;DHT22;3471;49.678;8.388;2023-06-14T14:48:18;35.50;59.90
6865;DHT22;3471;49.678;8.388;2023-06-14T14:50:43;35.40;59.70
6865;DHT22;3471;49.678;8.388;2023-06-14T14:53:09;35.60;60.00
6865;DHT22;3471;49.678;8.388;2023-06-14T14:55:34;35.70;57.80
6865;DHT22;3471;49.678;8.388;2023-06-14T14:58:02;35.80;60.00
6865;DHT22;3471;49.678;8.388;2023-06-14T15:00:28;36.00;59.90
6865;DHT22;3471;49.678;8.388;2023-06-14T15:02:54;36.10;57.30
6865;DHT22;3471;49.678;8.388;2023-06-14T15:05:20;36.10;57.10
6865;DHT22;3471;49.678;8.388;2023-06-14T15:07:46;36.10;57.40
6865;DHT22;3471;49.678;8.388;2023-06-14T15:10:11;36.10;57.70
6865;DHT22;3471;49.678;8.388;2023-06-14T15:12:37;36.20;59.60
6865;DHT22;3471;49.678;8.388;2023-06-14T15:15:03;36.20;56.80
6865;DHT22;3471;49.678;8.388;2023-06-14T15:17:29;36.30;58.00
6865;DHT22;3471;49.678;8.388;2023-06-14T15:19:55;36.40;56.80
6865;DHT22;3471;49.678;8.388;2023-06-14T15:22:21;36.40;58.00
6865;DHT22;3471;49.678;8.388;2023-06-14T15:24:46;36.40;55.90
6865;DHT22;3471;49.678;8.388;2023-06-14T15:27:12;36.40;57.20
6865;DHT22;3471;49.678;8.388;2023-06-14T15:29:41;36.40;59.10
6865;DHT22;3471;49.678;8.388;2023-06-14T15:32:08;36.20;57.90
6865;DHT22;3471;49.678;8.388;2023-06-14T15:34:33;36.20;60.00
6865;DHT22;3471;49.678;8.388;2023-06-14T15:36:59;36.10;54.70
6865;DHT22;3471;49.678;8.388;2023-06-14T15:39:26;36.10;53.20
6865;DHT22;3471;49.678;8.388;2023-06-14T15:41:52;35.90;57.10
6865;DHT22;3471;49.678;8.388;2023-06-14T15:44:18;35.70;57.10
6865;DHT22;3471;49.678;8.388;2023-06-14T15:46:43;35.60;58.40
6865;DHT22;3471;49.678;8.388;2023-06-14T15:49:09;35.50;57.90
6865;DHT22;3471;49.678;8.388;2023-06-14T15:51:36;35.50;56.00
6865;DHT22;3471;49.678;8.388;2023-06-14T15:54:02;35.10;57.30
6865;DHT22;3471;49.678;8.388;2023-06-14T15:56:27;34.60;57.50
6865;DHT22;3471;49.678;8.388;2023-06-14T15:58:53;34.10;57.70
6865;DHT22;3471;49.678;8.388;2023-06-14T16:01:18;33.70;58.40
6865;DHT22;3471;49.678;8.388;2023-06-14T16:03:44;33.50;57.70
6865;DHT22;3471;49.678;8.388;2023-06-14T16:06:10;33.40;59.40
6865;DHT22;3471;49.678;8.388;2023-06-14T16:08:35;33.30;56.80
6865;DHT22;3471;49.678;8.388;2023-06-14T16:11:01;33.10;57.80
6865;DHT22;3471;49.678;8.388;2023-06-14T16:13:27;33.10;58.20
6865;DHT22;3471;49.678;8.388;2023-06-14T16:15:52;32.90;57.90
6865;DHT22;3471;49.678;8.388;2023-06-14T16:18:18;32.80;58.30
6865;DHT22;3471;49.678;8.388;2023-06-14T16:20:44;32.70;59.20
6865;DHT22;3471;49.678;8.388;2023-06-14T16:23:09;32.50;58.90